createdAt,value
2022-09-14T00:01:08.145Z,3.80
2022-09-14T00:02:13.226Z,4.00
2022-09-14T00:03:16.183Z,4.17
2022-09-14T00:04:22.867Z,4.10
2022-09-14T00:05:25.886Z,4.17
2022-09-14T00:06:28.930Z,4.60
2022-09-14T00:07:31.846Z,4.20
2022-09-14T00:08:36.479Z,3.80
2022-09-14T00:09:39.801Z,4.17
2022-09-14T00:10:43.594Z,4.20
2022-09-14T00:11:45.990Z,3.90
2022-09-14T00:12:47.940Z,4.10
2022-09-14T00:13:50.319Z,4.27
2022-09-14T00:14:51.755Z,3.87
2022-09-14T00:15:53.503Z,3.57
2022-09-14T00:16:54.934Z,4.13
2022-09-14T00:17:56.481Z,4.40
2022-09-14T00:19:15.548Z,4.53
2022-09-14T00:20:17.435Z,4.40
2022-09-14T00:21:22.196Z,4.30
2022-09-14T00:22:30.675Z,4.47
2022-09-14T00:23:37.325Z,4.30
2022-09-14T00:24:39.018Z,3.80
2022-09-14T00:25:40.609Z,4.03
2022-09-14T00:26:42.026Z,4.30
2022-09-14T00:27:44.054Z,4.27
2022-09-14T00:28:48.608Z,4.50
2022-09-14T00:29:50.501Z,4.47
2022-09-14T00:30:51.972Z,4.73
2022-09-14T00:31:53.530Z,4.23
2022-09-14T00:32:55.975Z,4.10
2022-09-14T00:33:57.732Z,4.60
2022-09-14T00:34:59.096Z,4.20
2022-09-14T00:36:09.194Z,4.37
2022-09-14T00:37:11.779Z,4.47
2022-09-14T00:38:13.258Z,4.90
2022-09-14T00:39:15.914Z,4.60
2022-09-14T00:40:18.425Z,4.40
2022-09-14T00:41:23.372Z,5.17
2022-09-14T00:42:25.001Z,4.53
2022-09-14T00:43:27.157Z,4.20
2022-09-14T00:44:28.713Z,4.07
2022-09-14T00:45:30.739Z,4.13
2022-09-14T00:46:36.971Z,4.17
2022-09-14T00:47:38.812Z,5.00
2022-09-14T00:48:40.417Z,4.63
2022-09-14T00:49:43.765Z,4.70
2022-09-14T00:50:46.416Z,4.60
2022-09-14T00:51:51.560Z,4.53
2022-09-14T00:52:54.085Z,4.80
2022-09-14T00:53:56.028Z,4.60
2022-09-14T00:55:04.700Z,4.73
2022-09-14T00:56:06.836Z,4.20
2022-09-14T00:57:08.540Z,5.00
2022-09-14T00:58:09.954Z,4.60
2022-09-14T00:59:23.968Z,4.43
2022-09-14T01:00:28.799Z,4.77
2022-09-14T01:01:30.260Z,5.07
2022-09-14T01:02:33.445Z,6.10
2022-09-14T01:03:35.114Z,4.67
2022-09-14T01:04:37.253Z,4.70
2022-09-14T01:05:44.118Z,4.80
2022-09-14T01:06:48.600Z,5.23
2022-09-14T01:08:15.293Z,4.97
2022-09-14T01:09:29.629Z,4.83
2022-09-14T01:10:34.808Z,5.00
2022-09-14T01:12:01.290Z,5.40
2022-09-14T01:13:26.711Z,5.60
2022-09-14T01:14:36.653Z,4.50
2022-09-14T01:15:53.847Z,5.20
2022-09-14T01:17:07.257Z,4.60
2022-09-14T01:18:16.321Z,4.90
2022-09-14T01:19:33.443Z,4.67
2022-09-14T01:20:40.065Z,4.77
2022-09-14T01:21:44.103Z,5.00
2022-09-14T01:22:58.978Z,5.23
2022-09-14T01:24:12.459Z,5.00
2022-09-14T01:25:37.531Z,4.80
2022-09-14T01:26:48.033Z,5.03
2022-09-14T01:27:51.722Z,4.83
2022-09-14T01:29:14.226Z,6.00
2022-09-14T01:30:22.913Z,5.17
2022-09-14T01:31:37.345Z,5.20
2022-09-14T01:33:05.744Z,4.83
2022-09-14T01:34:34.846Z,5.67
2022-09-14T01:35:43.839Z,5.17
2022-09-14T01:36:51.746Z,5.17
2022-09-14T01:38:12.445Z,5.00
2022-09-14T01:39:16.415Z,5.70
2022-09-14T01:40:35.753Z,5.60
2022-09-14T01:41:39.150Z,5.30
2022-09-14T01:42:45.310Z,5.73
2022-09-14T01:43:58.900Z,5.43
2022-09-14T01:45:06.750Z,5.60
2022-09-14T01:46:26.455Z,5.37
2022-09-14T01:47:31.304Z,5.60
2022-09-14T01:48:54.557Z,5.97
2022-09-14T01:50:10.680Z,5.70
2022-09-14T01:51:16.646Z,6.10
2022-09-14T01:52:28.734Z,5.77
2022-09-14T01:53:42.054Z,5.57
2022-09-14T01:54:51.091Z,6.00
2022-09-14T01:55:58.979Z,5.30
2022-09-14T01:57:06.994Z,6.17
2022-09-14T01:58:16.844Z,5.30
2022-09-14T01:59:25.132Z,5.80
2022-09-14T02:00:28.177Z,5.90
2022-09-14T02:01:39.119Z,5.60
2022-09-14T02:02:46.780Z,5.97
2022-09-14T02:03:52.948Z,5.80
2022-09-14T02:05:03.205Z,6.17
2022-09-14T02:06:21.459Z,6.07
2022-09-14T02:07:23.686Z,5.60
2022-09-14T02:08:28.013Z,5.80
2022-09-14T02:09:29.804Z,5.57
2022-09-14T02:10:31.774Z,6.20
2022-09-14T02:11:34.065Z,6.10
2022-09-14T02:12:36.340Z,6.00
2022-09-14T02:13:37.799Z,6.27
2022-09-14T02:14:39.591Z,6.30
2022-09-14T02:15:41.058Z,5.97
2022-09-14T02:16:46.182Z,6.40
2022-09-14T02:17:48.153Z,6.27
2022-09-14T02:18:50.127Z,6.30
2022-09-14T02:19:59.902Z,5.90
2022-09-14T02:21:08.287Z,5.93
2022-09-14T02:22:09.830Z,6.17
2022-09-14T02:23:11.591Z,5.87
2022-09-14T02:24:15.981Z,6.17
2022-09-14T02:25:18.171Z,6.47
2022-09-14T02:26:21.800Z,5.60
2022-09-14T02:27:24.310Z,6.33
2022-09-14T02:28:25.795Z,5.60
2022-09-14T02:29:27.759Z,6.03
2022-09-14T02:30:37.361Z,5.70
2022-09-14T02:31:59.335Z,5.97
2022-09-14T02:33:15.724Z,5.43
2022-09-14T02:34:32.142Z,5.73
2022-09-14T02:35:41.050Z,5.80
2022-09-14T02:36:47.806Z,5.50
2022-09-14T02:38:01.073Z,5.20
2022-09-14T02:39:33.225Z,6.43
2022-09-14T02:40:43.880Z,5.40
2022-09-14T02:41:54.105Z,6.00
2022-09-14T02:43:00.842Z,5.90
2022-09-14T02:44:17.647Z,5.53
2022-09-14T02:45:21.768Z,6.17
2022-09-14T02:46:34.886Z,5.87
2022-09-14T02:48:09.724Z,5.60
2022-09-14T02:49:46.599Z,6.33
2022-09-14T02:50:54.132Z,6.90
2022-09-14T02:52:04.649Z,6.27
2022-09-14T02:53:18.875Z,5.60
2022-09-14T02:54:33.398Z,5.50
2022-09-14T02:55:40.382Z,6.00
2022-09-14T02:56:42.570Z,5.60
2022-09-14T02:58:08.754Z,6.20
2022-09-14T02:59:10.797Z,5.73
2022-09-14T03:00:12.657Z,5.87
2022-09-14T03:01:17.833Z,6.37
2022-09-14T03:02:19.456Z,6.20
2022-09-14T03:03:21.927Z,6.10
2022-09-14T03:04:23.551Z,5.80
2022-09-14T03:05:25.350Z,6.30
2022-09-14T03:06:27.043Z,5.87
2022-09-14T03:07:28.831Z,6.27
2022-09-14T03:08:30.716Z,6.07
2022-09-14T03:09:32.469Z,5.90
2022-09-14T03:10:34.314Z,6.87
2022-09-14T03:11:36.127Z,6.40
2022-09-14T03:12:39.443Z,6.63
2022-09-14T03:13:41.261Z,7.23
2022-09-14T03:14:42.639Z,7.20
2022-09-14T03:15:44.543Z,8.13
2022-09-14T03:16:46.018Z,7.40
2022-09-14T03:17:48.909Z,6.43
2022-09-14T03:18:50.353Z,7.27
2022-09-14T03:19:51.720Z,8.13
2022-09-14T03:20:53.432Z,8.70
2022-09-14T03:21:55.051Z,8.73
2022-09-14T03:22:58.988Z,9.00
2022-09-14T03:24:00.360Z,9.73
2022-09-14T03:25:02.186Z,8.70
2022-09-14T03:26:08.293Z,9.87
2022-09-14T03:27:09.657Z,10.23
2022-09-14T03:28:12.869Z,10.50
2022-09-14T03:29:14.318Z,10.90
2022-09-14T03:30:16.353Z,10.87
2022-09-14T03:31:18.042Z,10.07
2022-09-14T03:32:19.743Z,10.10
2022-09-14T03:33:21.227Z,10.50
2022-09-14T03:34:22.766Z,10.07
2022-09-14T03:35:24.744Z,10.57
2022-09-14T03:36:28.886Z,10.90
2022-09-14T03:37:30.315Z,9.57
2022-09-14T03:38:31.720Z,9.83
2022-09-14T03:39:33.489Z,9.77
2022-09-14T03:40:34.965Z,10.17
2022-09-14T03:41:36.610Z,10.10
2022-09-14T03:42:45.672Z,9.90
2022-09-14T03:43:47.728Z,9.77
2022-09-14T03:44:49.262Z,9.37
2022-09-14T03:45:50.724Z,10.00
2022-09-14T03:46:52.112Z,9.67
2022-09-14T03:47:53.798Z,10.50
2022-09-14T03:48:56.296Z,10.93
2022-09-14T03:49:58.326Z,9.73
2022-09-14T03:51:05.098Z,9.80
2022-09-14T03:52:07.789Z,9.90
2022-09-14T03:53:09.454Z,9.53
2022-09-14T03:54:11.080Z,9.20
2022-09-14T03:55:12.718Z,10.07
2022-09-14T03:56:17.639Z,10.10
2022-09-14T03:57:19.690Z,10.60
2022-09-14T03:58:21.672Z,10.10
2022-09-14T03:59:23.367Z,11.37
2022-09-14T04:00:25.318Z,10.40
2022-09-14T04:01:27.378Z,10.20
2022-09-14T04:02:29.726Z,10.77
2022-09-14T04:03:32.704Z,10.53
2022-09-14T04:04:34.320Z,10.10
2022-09-14T04:05:36.089Z,10.23
2022-09-14T04:06:38.076Z,10.30
2022-09-14T04:07:39.960Z,10.60
2022-09-14T04:08:42.986Z,10.50
2022-09-14T04:09:45.041Z,9.90
2022-09-14T04:10:46.798Z,10.77
2022-09-14T04:11:48.776Z,11.20
2022-09-14T04:12:50.837Z,10.13
2022-09-14T04:13:53.292Z,10.63
2022-09-14T04:14:55.141Z,11.03
2022-09-14T04:16:00.710Z,10.10
2022-09-14T04:17:02.702Z,10.40
2022-09-14T04:18:04.429Z,10.40
2022-09-14T04:19:06.910Z,10.80
2022-09-14T04:20:09.037Z,10.47
2022-09-14T04:21:15.675Z,11.03
2022-09-14T04:22:17.126Z,10.00
2022-09-14T04:23:18.532Z,11.50
2022-09-14T04:24:20.492Z,10.63
2022-09-14T04:25:23.265Z,10.70
2022-09-14T04:26:28.381Z,11.30
2022-09-14T04:27:31.098Z,10.80
2022-09-14T04:28:32.607Z,10.93
2022-09-14T04:29:34.182Z,11.00
2022-09-14T04:30:35.715Z,11.00
2022-09-14T04:31:37.540Z,11.07
2022-09-14T04:32:39.061Z,12.00
2022-09-14T04:33:43.039Z,10.03
2022-09-14T04:34:44.572Z,11.00
2022-09-14T04:35:46.054Z,11.03
2022-09-14T04:36:47.568Z,11.27
2022-09-14T04:37:48.952Z,11.03
2022-09-14T04:38:53.456Z,10.80
2022-09-14T04:39:55.477Z,10.50
2022-09-14T04:40:58.693Z,10.43
2022-09-14T04:42:00.360Z,10.63
2022-09-14T04:43:01.844Z,11.47
2022-09-14T04:44:03.679Z,10.87
2022-09-14T04:45:05.665Z,11.17
2022-09-14T04:46:11.041Z,11.70
2022-09-14T04:47:13.018Z,11.20
2022-09-14T04:48:14.805Z,10.73
2022-09-14T04:49:18.835Z,10.97
2022-09-14T04:50:20.362Z,10.60
2022-09-14T04:51:25.416Z,10.80
2022-09-14T04:52:27.137Z,9.97
2022-09-14T04:53:28.599Z,10.80
2022-09-14T04:54:30.106Z,10.60
2022-09-14T04:55:32.222Z,11.07
2022-09-14T04:56:35.554Z,10.57
2022-09-14T04:57:37.092Z,10.07
2022-09-14T04:58:42.691Z,10.90
2022-09-14T04:59:44.332Z,10.70
2022-09-14T05:00:46.387Z,11.50
2022-09-14T05:01:48.524Z,10.73
2022-09-14T05:02:50.382Z,10.63
2022-09-14T05:03:52.793Z,10.43
2022-09-14T05:04:54.258Z,10.20
2022-09-14T05:05:55.786Z,10.60
2022-09-14T05:06:57.351Z,10.70
2022-09-14T05:07:58.824Z,10.00
2022-09-14T05:09:04.951Z,10.50
2022-09-14T05:10:08.319Z,9.83
2022-09-14T05:11:13.924Z,9.90
2022-09-14T05:12:15.563Z,10.30
2022-09-14T05:13:16.964Z,10.00
2022-09-14T05:14:18.582Z,10.43
2022-09-14T05:15:19.992Z,11.20
2022-09-14T05:16:33.089Z,11.00
2022-09-14T05:17:35.518Z,10.50
2022-09-14T05:18:37.347Z,10.10
2022-09-14T05:19:38.724Z,10.60
2022-09-14T05:20:40.429Z,10.40
2022-09-14T05:21:42.265Z,10.77
2022-09-14T05:22:43.716Z,10.50
2022-09-14T05:23:46.039Z,10.60
2022-09-14T05:24:47.551Z,10.33
2022-09-14T05:25:54.781Z,11.07
2022-09-14T05:27:00.223Z,10.23
2022-09-14T05:28:03.133Z,10.53
2022-09-14T05:29:04.804Z,11.13
2022-09-14T05:30:07.128Z,10.33
2022-09-14T05:31:12.999Z,10.43
2022-09-14T05:32:14.546Z,11.03
2022-09-14T05:33:15.938Z,11.93
2022-09-14T05:34:17.714Z,10.80
2022-09-14T05:35:19.224Z,11.07
2022-09-14T05:36:21.082Z,10.83
2022-09-14T05:37:22.500Z,10.57
2022-09-14T05:38:23.895Z,10.70
2022-09-14T05:39:25.576Z,10.43
2022-09-14T05:40:27.336Z,11.43
2022-09-14T05:41:28.843Z,11.30
2022-09-14T05:42:30.395Z,11.10
2022-09-14T05:43:32.532Z,10.60
2022-09-14T05:44:34.371Z,10.93
2022-09-14T05:45:36.131Z,10.57
2022-09-14T05:46:37.584Z,9.70
2022-09-14T05:47:39.346Z,11.40
2022-09-14T05:48:41.323Z,10.67
2022-09-14T05:49:42.806Z,10.30
2022-09-14T05:50:44.497Z,10.37
2022-09-14T05:51:46.310Z,10.87
2022-09-14T05:52:49.263Z,10.53
2022-09-14T05:53:56.774Z,10.57
2022-09-14T05:54:58.291Z,10.63
2022-09-14T05:56:11.648Z,10.60
2022-09-14T05:57:13.071Z,10.50
2022-09-14T05:58:14.530Z,10.43
2022-09-14T05:59:15.939Z,10.57
2022-09-14T06:00:18.294Z,10.17
2022-09-14T06:01:29.291Z,9.90
2022-09-14T06:02:30.854Z,9.80
2022-09-14T06:03:32.507Z,9.20
2022-09-14T06:04:34.075Z,9.50
2022-09-14T06:05:36.071Z,9.30
2022-09-14T06:06:38.003Z,9.93
2022-09-14T06:07:39.467Z,8.97
2022-09-14T06:08:41.449Z,8.50
2022-09-14T06:09:42.904Z,9.30
2022-09-14T06:10:44.307Z,8.90
2022-09-14T06:11:46.031Z,9.60
2022-09-14T06:12:50.242Z,9.37
2022-09-14T06:13:54.805Z,7.87
2022-09-14T06:14:56.269Z,8.63
2022-09-14T06:16:12.619Z,9.93
2022-09-14T06:17:14.715Z,8.67
2022-09-14T06:18:16.414Z,8.83
2022-09-14T06:19:18.006Z,8.57
2022-09-14T06:20:19.394Z,8.80
2022-09-14T06:21:22.272Z,8.70
2022-09-14T06:22:24.361Z,9.40
2022-09-14T06:23:27.635Z,8.50
2022-09-14T06:24:29.732Z,8.80
2022-09-14T06:25:31.159Z,8.53
2022-09-14T06:26:33.029Z,8.30
2022-09-14T06:27:34.406Z,8.70
2022-09-14T06:28:36.696Z,8.20
2022-09-14T06:29:38.142Z,7.73
2022-09-14T06:30:43.183Z,7.87
2022-09-14T06:31:44.558Z,8.37
2022-09-14T06:32:45.971Z,7.83
2022-09-14T06:33:49.008Z,8.33
2022-09-14T06:34:50.454Z,7.80
2022-09-14T06:36:12.643Z,8.30
2022-09-14T06:37:14.582Z,8.50
2022-09-14T06:38:16.332Z,8.30
2022-09-14T06:39:18.334Z,8.80
2022-09-14T06:40:19.796Z,8.20
2022-09-14T06:41:26.475Z,8.40
2022-09-14T06:42:30.671Z,8.63
2022-09-14T06:43:34.899Z,8.63
2022-09-14T06:44:36.717Z,7.90
2022-09-14T06:45:38.087Z,7.83
2022-09-14T06:46:39.599Z,7.70
2022-09-14T06:47:41.336Z,7.73
2022-09-14T06:48:45.910Z,7.57
2022-09-14T06:49:47.412Z,7.93
2022-09-14T06:50:49.258Z,8.10
2022-09-14T06:51:51.131Z,7.90
2022-09-14T06:52:52.913Z,8.13
2022-09-14T06:53:57.037Z,7.60
2022-09-14T06:54:58.546Z,8.17
2022-09-14T06:56:00.198Z,7.53
2022-09-14T06:57:01.668Z,7.47
2022-09-14T06:58:03.181Z,7.57
2022-09-14T06:59:06.366Z,7.50
2022-09-14T07:00:08.828Z,7.10
2022-09-14T07:01:18.212Z,6.87
2022-09-14T07:02:20.301Z,6.90
2022-09-14T07:03:21.738Z,6.93
2022-09-14T07:04:25.259Z,7.43
2022-09-14T07:05:26.682Z,6.93
2022-09-14T07:06:31.477Z,6.67
2022-09-14T07:07:33.182Z,6.73
2022-09-14T07:08:36.059Z,6.60
2022-09-14T07:09:38.180Z,6.90
2022-09-14T07:10:39.776Z,7.00
2022-09-14T07:11:42.136Z,6.50
2022-09-14T07:12:43.618Z,5.93
2022-09-14T07:13:46.399Z,6.20
2022-09-14T07:14:47.851Z,6.60
2022-09-14T07:15:50.499Z,7.17
2022-09-14T07:16:52.105Z,6.73
2022-09-14T07:17:53.877Z,6.60
2022-09-14T07:18:56.903Z,6.00
2022-09-14T07:19:58.600Z,6.27
2022-09-14T07:21:05.645Z,7.47
2022-09-14T07:22:07.881Z,6.53
2022-09-14T07:23:09.359Z,5.57
2022-09-14T07:24:13.176Z,5.97
2022-09-14T07:25:14.660Z,6.53
2022-09-14T07:26:22.022Z,6.03
2022-09-14T07:27:23.402Z,6.63
2022-09-14T07:28:24.803Z,6.30
2022-09-14T07:29:27.247Z,6.70
2022-09-14T07:30:28.708Z,6.20
2022-09-14T07:31:39.901Z,5.90
2022-09-14T07:32:41.533Z,6.30
2022-09-14T07:33:43.301Z,5.47
2022-09-14T07:34:45.060Z,5.87
2022-09-14T07:35:46.455Z,5.80
2022-09-14T07:36:47.826Z,5.20
2022-09-14T07:37:49.430Z,5.40
2022-09-14T07:38:52.877Z,6.07
2022-09-14T07:39:55.308Z,5.37
2022-09-14T07:40:59.633Z,5.70
2022-09-14T07:42:01.069Z,6.00
2022-09-14T07:43:02.682Z,5.18
2022-09-14T07:44:06.531Z,5.40
2022-09-14T07:45:08.307Z,5.63
2022-09-14T07:46:10.055Z,5.55
2022-09-14T07:47:11.587Z,5.47
2022-09-14T07:48:12.980Z,5.50
2022-09-14T07:49:15.671Z,5.10
2022-09-14T07:50:18.114Z,6.13
2022-09-14T07:51:19.518Z,5.22
2022-09-14T07:52:20.989Z,5.22
2022-09-14T07:53:22.359Z,5.00
2022-09-14T07:54:23.850Z,5.30
2022-09-14T07:55:25.422Z,5.05
2022-09-14T07:56:27.682Z,5.10
2022-09-14T07:57:45.709Z,5.65
2022-09-14T07:58:55.415Z,5.35
2022-09-14T07:59:59.120Z,4.45
2022-09-14T08:01:02.944Z,4.90
2022-09-14T08:02:08.564Z,4.80
2022-09-14T08:03:10.292Z,4.70
2022-09-14T08:04:11.795Z,4.60
2022-09-14T08:05:13.471Z,4.75
2022-09-14T08:06:18.262Z,4.90
2022-09-14T08:07:19.971Z,4.68
2022-09-14T08:08:21.905Z,4.65
2022-09-14T08:09:23.833Z,5.18
2022-09-14T08:10:26.533Z,5.13
2022-09-14T08:11:32.280Z,5.00
2022-09-14T08:12:33.652Z,4.93
2022-09-14T08:13:35.694Z,5.20
2022-09-14T08:14:37.320Z,4.88
2022-09-14T08:15:40.001Z,5.18
2022-09-14T08:16:41.971Z,4.80
2022-09-14T08:17:43.601Z,4.80
2022-09-14T08:18:46.085Z,5.22
2022-09-14T08:19:47.590Z,4.57
2022-09-14T08:20:49.524Z,5.03
2022-09-14T08:21:51.293Z,5.20
2022-09-14T08:22:52.694Z,4.63
2022-09-14T08:23:55.052Z,4.20
2022-09-14T08:24:56.387Z,4.85
2022-09-14T08:26:03.722Z,4.30
2022-09-14T08:27:05.182Z,4.20
2022-09-14T08:28:06.892Z,4.38
2022-09-14T08:29:08.368Z,4.05
2022-09-14T08:30:10.246Z,4.40
2022-09-14T08:31:15.003Z,4.72
2022-09-14T08:32:16.465Z,4.00
2022-09-14T08:33:17.966Z,4.97
2022-09-14T08:34:20.486Z,4.78
2022-09-14T08:35:40.744Z,4.45
2022-09-14T08:36:44.901Z,5.10
2022-09-14T08:37:47.598Z,4.65
2022-09-14T08:38:49.595Z,4.57
2022-09-14T08:39:51.845Z,5.18
2022-09-14T08:40:54.229Z,4.50
2022-09-14T08:41:58.662Z,5.13
2022-09-14T08:43:03.559Z,4.38
2022-09-14T08:44:26.128Z,4.65
2022-09-14T08:45:28.485Z,4.38
2022-09-14T08:46:38.815Z,5.28
2022-09-14T08:47:42.242Z,4.97
2022-09-14T08:48:49.197Z,5.30
2022-09-14T08:49:59.633Z,4.80
2022-09-14T08:51:03.557Z,5.00
2022-09-14T08:52:06.147Z,4.22
2022-09-14T08:53:08.307Z,4.60
2022-09-14T08:54:10.556Z,4.50
2022-09-14T08:55:15.281Z,4.85
2022-09-14T08:56:25.234Z,4.85
2022-09-14T08:57:51.263Z,4.57
2022-09-14T08:59:37.033Z,4.97
2022-09-14T09:00:58.013Z,6.07
2022-09-14T09:02:46.010Z,5.18
2022-09-14T09:04:02.509Z,4.93
2022-09-14T09:05:23.860Z,4.95
2022-09-14T09:06:37.452Z,4.60
2022-09-14T09:07:48.840Z,5.30
2022-09-14T09:09:14.614Z,5.10
2022-09-14T09:10:16.600Z,4.85
2022-09-14T09:11:21.140Z,5.07
2022-09-14T09:12:27.522Z,5.38
2022-09-14T09:13:36.798Z,4.45
2022-09-14T09:14:47.081Z,5.15
2022-09-14T09:15:51.631Z,4.57
2022-09-14T09:16:57.311Z,4.57
2022-09-14T09:18:22.315Z,4.30
2022-09-14T09:19:38.541Z,4.28
2022-09-14T09:20:46.214Z,4.90
2022-09-14T09:21:48.928Z,4.63
2022-09-14T09:23:10.541Z,4.95
2022-09-14T09:24:36.935Z,4.35
2022-09-14T09:25:44.469Z,4.68
2022-09-14T09:26:46.428Z,4.57
2022-09-14T09:27:47.793Z,4.90
2022-09-14T09:28:53.340Z,4.43
2022-09-14T09:29:55.097Z,4.72
2022-09-14T09:31:09.251Z,4.97
2022-09-14T09:32:34.553Z,4.47
2022-09-14T09:33:57.554Z,4.65
2022-09-14T09:35:01.244Z,4.55
2022-09-14T09:36:21.196Z,3.80
2022-09-14T09:37:24.084Z,4.85
2022-09-14T09:38:29.218Z,4.55
2022-09-14T09:39:33.102Z,4.63
2022-09-14T09:40:38.003Z,4.57
2022-09-14T09:41:53.029Z,4.68
2022-09-14T09:43:05.439Z,4.22
2022-09-14T09:44:11.646Z,4.72
2022-09-14T09:45:13.069Z,4.38
2022-09-14T09:46:14.926Z,4.43
2022-09-14T09:47:31.316Z,5.00
2022-09-14T09:48:38.510Z,4.95
2022-09-14T09:49:40.146Z,4.38
2022-09-14T09:50:58.961Z,4.57
2022-09-14T09:52:15.961Z,4.60
2022-09-14T09:53:20.959Z,4.10
2022-09-14T09:54:32.273Z,4.00
2022-09-14T09:55:39.727Z,4.15
2022-09-14T09:56:53.856Z,4.68
2022-09-14T09:57:55.331Z,4.80
2022-09-14T09:58:56.786Z,5.20
2022-09-14T10:00:18.224Z,4.70
2022-09-14T10:01:27.721Z,4.72
2022-09-14T10:02:31.708Z,4.70
2022-09-14T10:03:39.680Z,4.80
2022-09-14T10:04:56.556Z,4.03
2022-09-14T10:06:16.061Z,4.85
2022-09-14T10:07:22.753Z,4.45
2022-09-14T10:08:24.870Z,4.68
2022-09-14T10:09:28.522Z,4.95
2022-09-14T10:10:38.470Z,4.72
2022-09-14T10:11:39.922Z,5.10
2022-09-14T10:12:51.766Z,4.70
2022-09-14T10:13:53.517Z,5.30
2022-09-14T10:15:25.881Z,4.90
2022-09-14T10:16:43.052Z,4.78
2022-09-14T10:18:15.805Z,4.93
2022-09-14T10:19:23.528Z,4.50
2022-09-14T10:20:25.960Z,4.63
2022-09-14T10:21:27.399Z,5.65
2022-09-14T10:22:31.246Z,5.25
2022-09-14T10:23:38.137Z,5.43
2022-09-14T10:24:39.532Z,5.43
2022-09-14T10:25:40.934Z,6.47
2022-09-14T10:26:42.619Z,5.90
2022-09-14T10:27:59.997Z,5.95
2022-09-14T10:29:20.560Z,5.53
2022-09-14T10:30:23.810Z,6.10
2022-09-14T10:31:32.552Z,6.20
2022-09-14T10:32:35.404Z,5.63
2022-09-14T10:33:36.814Z,5.78
2022-09-14T10:34:38.263Z,7.00
2022-09-14T10:36:08.476Z,6.60
2022-09-14T10:37:32.086Z,5.80
2022-09-14T10:38:47.961Z,5.45
2022-09-14T10:40:07.965Z,5.80
2022-09-14T10:41:19.261Z,5.72
2022-09-14T10:42:23.487Z,5.65
2022-09-14T10:43:51.862Z,5.07
2022-09-14T10:45:02.036Z,5.18
2022-09-14T10:46:04.872Z,5.15
2022-09-14T10:47:15.197Z,5.18
2022-09-14T10:48:28.762Z,5.00
2022-09-14T10:49:37.765Z,5.05
2022-09-14T10:51:02.853Z,5.10
2022-09-14T10:52:17.856Z,5.25
2022-09-14T10:54:16.093Z,4.63
2022-09-14T10:55:42.159Z,5.72
2022-09-14T10:57:03.539Z,4.95
2022-09-14T10:58:24.282Z,5.65
2022-09-14T10:59:31.807Z,5.90
2022-09-14T11:00:58.879Z,4.80
2022-09-14T11:02:12.174Z,5.75
2022-09-14T11:03:40.862Z,4.25
2022-09-14T11:05:02.915Z,4.20
2022-09-14T11:06:19.037Z,5.38
2022-09-14T11:07:44.151Z,4.45
2022-09-14T11:08:54.105Z,4.63
2022-09-14T11:10:13.409Z,4.20
2022-09-14T11:11:38.264Z,5.57
2022-09-14T11:12:42.919Z,5.30
2022-09-14T11:14:07.104Z,5.50
2022-09-14T11:15:19.134Z,5.65
2022-09-14T11:16:32.959Z,6.10
2022-09-14T11:17:43.103Z,4.97
2022-09-14T11:18:51.420Z,5.78
2022-09-14T11:19:52.930Z,4.85
2022-09-14T11:21:18.348Z,5.85
2022-09-14T11:22:35.452Z,5.38
2022-09-14T11:23:54.443Z,5.20
2022-09-14T11:25:12.921Z,6.00
2022-09-14T11:26:43.379Z,5.90
2022-09-14T11:27:51.356Z,5.60
2022-09-14T11:29:15.695Z,5.25
2022-09-14T11:30:20.515Z,5.30
2022-09-14T11:32:10.138Z,5.00
2022-09-14T11:33:23.107Z,6.13
2022-09-14T11:34:45.558Z,5.45
2022-09-14T11:36:01.707Z,4.82
2022-09-14T11:37:16.535Z,5.90
2022-09-14T11:38:28.112Z,5.40
2022-09-14T11:39:33.414Z,4.93
2022-09-14T11:40:46.005Z,5.28
2022-09-14T11:41:56.115Z,5.65
2022-09-14T11:43:23.460Z,5.55
2022-09-14T11:44:36.553Z,5.93
2022-09-14T11:45:42.850Z,5.43
2022-09-14T11:47:03.881Z,5.88
2022-09-14T11:48:48.619Z,5.28
2022-09-14T11:49:52.448Z,6.35
2022-09-14T11:51:09.369Z,5.40
2022-09-14T11:52:22.791Z,5.82
2022-09-14T11:53:25.782Z,5.88
2022-09-14T11:54:27.865Z,6.05
2022-09-14T11:55:29.816Z,5.53
2022-09-14T11:56:33.923Z,6.05
2022-09-14T11:57:35.570Z,6.20
2022-09-14T11:58:37.514Z,6.57
2022-09-14T11:59:42.147Z,6.07
2022-09-14T12:00:46.008Z,6.32
2022-09-14T12:01:48.130Z,6.70
2022-09-14T12:03:20.059Z,5.82
2022-09-14T12:04:22.461Z,5.80
2022-09-14T12:05:31.736Z,6.47
2022-09-14T12:06:35.876Z,5.82
2022-09-14T12:07:43.095Z,6.53
2022-09-14T12:08:44.855Z,5.25
2022-09-14T12:09:46.317Z,6.10
2022-09-14T12:11:26.650Z,5.50
2022-09-14T12:12:30.482Z,5.60
2022-09-14T12:13:32.392Z,6.45
2022-09-14T12:14:40.787Z,5.25
2022-09-14T12:15:43.194Z,5.50
2022-09-14T12:17:22.513Z,5.93
2022-09-14T12:18:28.077Z,6.28
2022-09-14T12:19:30.973Z,5.78
2022-09-14T12:20:42.976Z,6.53
2022-09-14T12:21:44.757Z,5.95
2022-09-14T12:22:49.981Z,6.55
2022-09-14T12:23:57.886Z,6.25
2022-09-14T12:25:15.245Z,5.65
2022-09-14T12:26:19.878Z,5.45
2022-09-14T12:27:23.401Z,6.13
2022-09-14T12:28:39.509Z,6.07
2022-09-14T12:29:41.052Z,6.63
2022-09-14T12:30:42.469Z,5.97
2022-09-14T12:31:44.018Z,5.32
2022-09-14T12:32:45.596Z,5.20
2022-09-14T12:34:07.995Z,5.97
2022-09-14T12:35:34.141Z,5.78
2022-09-14T12:36:38.299Z,5.18
2022-09-14T12:37:39.812Z,5.93
2022-09-14T12:38:55.129Z,5.28
2022-09-14T12:40:21.338Z,6.18
2022-09-14T12:41:22.994Z,5.63
2022-09-14T12:42:31.573Z,5.80
2022-09-14T12:43:33.289Z,5.93
2022-09-14T12:44:40.482Z,5.68
2022-09-14T12:45:51.060Z,5.60
2022-09-14T12:46:52.670Z,5.60
2022-09-14T12:47:54.200Z,5.72
2022-09-14T12:49:04.279Z,5.75
2022-09-14T12:50:20.785Z,5.63
2022-09-14T12:51:35.916Z,6.53
2022-09-14T12:53:10.961Z,5.25
2022-09-14T12:54:49.292Z,5.90
2022-09-14T12:56:13.770Z,6.15
2022-09-14T12:57:34.429Z,5.60
2022-09-14T12:59:03.050Z,6.13
2022-09-14T13:00:17.657Z,5.40
2022-09-14T13:01:48.586Z,4.90
2022-09-14T13:02:59.927Z,7.00
2022-09-14T13:04:03.334Z,6.45
2022-09-14T13:05:08.052Z,6.72
2022-09-14T13:06:13.825Z,6.18
2022-09-14T13:07:18.021Z,7.47
2022-09-14T13:08:24.375Z,5.90
2022-09-14T13:09:28.185Z,6.45
2022-09-14T13:10:33.805Z,6.65
2022-09-14T13:11:38.799Z,6.88
2022-09-14T13:12:43.803Z,6.72
2022-09-14T13:13:45.816Z,7.20
2022-09-14T13:14:56.430Z,6.40
2022-09-14T13:16:03.829Z,6.43
2022-09-14T13:17:11.968Z,7.15
2022-09-14T13:18:18.918Z,7.38
2022-09-14T13:19:31.463Z,7.65
2022-09-14T13:20:35.131Z,6.95
2022-09-14T13:21:47.692Z,6.43
2022-09-14T13:22:49.171Z,6.75
2022-09-14T13:23:51.362Z,7.03
2022-09-14T13:24:56.257Z,7.13
2022-09-14T13:25:58.722Z,7.40
2022-09-14T13:27:02.070Z,7.00
2022-09-14T13:28:16.413Z,7.13
2022-09-14T13:29:18.159Z,7.88
2022-09-14T13:30:22.803Z,6.93
2022-09-14T13:31:33.805Z,7.50
2022-09-14T13:32:39.145Z,6.53
2022-09-14T13:33:51.342Z,7.32
2022-09-14T13:34:53.548Z,6.53
2022-09-14T13:36:01.109Z,5.95
2022-09-14T13:37:04.352Z,6.95
2022-09-14T13:38:14.469Z,6.25
2022-09-14T13:39:33.230Z,5.97
2022-09-14T13:40:35.497Z,7.22
2022-09-14T13:41:43.675Z,6.60
2022-09-14T13:42:45.592Z,6.68
2022-09-14T13:43:51.073Z,7.00
2022-09-14T13:44:53.039Z,6.55
2022-09-14T13:45:54.960Z,6.38
2022-09-14T13:46:59.326Z,6.97
2022-09-14T13:48:01.509Z,6.68
2022-09-14T13:49:05.673Z,5.97
2022-09-14T13:50:08.180Z,5.70
2022-09-14T13:51:12.344Z,5.60
2022-09-14T13:52:38.898Z,6.35
2022-09-14T13:53:53.396Z,5.75
2022-09-14T13:55:13.689Z,5.20
2022-09-14T13:56:30.991Z,5.07
2022-09-14T13:57:32.638Z,4.80
2022-09-14T13:58:35.777Z,4.65
2022-09-14T13:59:37.304Z,5.00
2022-09-14T14:01:00.216Z,4.80
2022-09-14T14:02:03.218Z,5.40
2022-09-14T14:03:05.398Z,4.70
2022-09-14T14:04:20.183Z,4.78
2022-09-14T14:05:30.881Z,4.13
2022-09-14T14:06:38.238Z,4.60
2022-09-14T14:07:39.702Z,4.03
2022-09-14T14:08:41.305Z,3.85
2022-09-14T14:09:52.254Z,4.68
2022-09-14T14:10:55.340Z,4.18
2022-09-14T14:11:56.910Z,4.03
2022-09-14T14:13:00.484Z,3.83
2022-09-14T14:14:17.111Z,3.90
2022-09-14T14:15:18.552Z,3.92
2022-09-14T14:16:28.677Z,4.05
2022-09-14T14:17:30.401Z,3.90
2022-09-14T14:18:42.951Z,3.78
2022-09-14T14:19:44.970Z,3.63
2022-09-14T14:20:46.538Z,4.25
2022-09-14T14:21:49.413Z,3.97
2022-09-14T14:23:02.732Z,3.70
2022-09-14T14:24:28.015Z,4.18
2022-09-14T14:25:35.129Z,4.00
2022-09-14T14:26:37.158Z,3.95
2022-09-14T14:27:43.363Z,4.22
2022-09-14T14:28:45.157Z,3.80
2022-09-14T14:29:46.587Z,4.18
2022-09-14T14:30:48.623Z,3.90
2022-09-14T14:31:50.413Z,3.60
2022-09-14T14:32:56.966Z,4.07
2022-09-14T14:33:58.869Z,3.42
2022-09-14T14:35:08.665Z,3.58
2022-09-14T14:36:10.678Z,3.30
2022-09-14T14:37:12.333Z,3.33
2022-09-14T14:38:13.937Z,3.40
2022-09-14T14:39:20.154Z,3.28
2022-09-14T14:40:22.270Z,3.60
2022-09-14T14:41:24.072Z,3.92
2022-09-14T14:42:25.678Z,3.75
2022-09-14T14:43:27.439Z,3.97
2022-09-14T14:44:30.003Z,3.90
2022-09-14T14:45:36.203Z,3.22